Airfield :
LOGIN :

Register | Disclaimer

   EN    FR    IT 

 










Legend :    VFR   Marginal VFR   IFR   Intensive IFR   Very Intensive IFR
Visi :
Ceiling :
>= 8 km
>= 3000ft
5 to 8 km
1000 to 3000 ft
1500m to 5 km
500 to 1000 ft
800 to 1500m
200 to 500 ft
< 800m
< 200 ft
Symbols :   Thunderstorms  Fog  Heavy snow  Heavy precipitations  Wind > 20 kt
SIGMETs :     Misc.  Thunderstorms  Icing  Turbulence  Mountain Waves  Volcanic Ashes






- Airport Elevation : 81 ft
- IATA code : SCS


EGPM - Scatsta

CURRENT METAR :
  • 122350Z AUTO 12004KT 070V140 9999 FEW033/// M00/M02 Q0998

EXPIRED METARs :
  • 122320Z AUTO VRB02KT 9999 BKN027/// BKN043/// M01/M02 Q0998
  • 122250Z AUTO VRB02KT 9999 FEW042/// M00/M02 Q0998
  • 122220Z AUTO 10003KT 9999 FEW009/// SCT045/// 01/M01 Q0998
  • 122150Z AUTO 02013KT 340V080 9999 SCT036/// 03/00 Q0998
  • 122120Z AUTO 11004KT 9999 FEW006/// BKN036/// 01/M01 Q0998
  • 122050Z AUTO 05013KT 9999 -RA FEW002/// BKN014/// BKN036/// 02/00 Q0998

Expired Forecast.



MET'MAP, your aeronautical weather chart ! - Copyright ORBIFLY December 2007 - Disclaimer

ORBIFLY MET'MAP TEAM :

Programming & Development : Alexandra Zaïnal
Concept & Development : Baudouin d'Aumeries
Co-Development & Prog : Marc-Olivier Méhu
Technical & hardware support : Manuel Goepfert

Contact : metmap@orbifly.com




SOURCES & CREDITS :

   NOAA